createdAt,value
2023-01-01T00:00:48.954Z,101666.63
2023-01-01T00:03:53.875Z,101661.31
2023-01-01T00:06:56.666Z,101653.34
2023-01-01T00:10:37.858Z,101652.62
2023-01-01T00:13:41.917Z,101644.75
2023-01-01T00:16:45.164Z,101652.41
2023-01-01T00:19:47.891Z,101632.97
2023-01-01T00:22:55.780Z,101643.81
2023-01-01T00:25:59.350Z,101637.88
2023-01-01T00:29:02.959Z,101654.69
2023-01-01T00:32:07.959Z,101645.69
2023-01-01T00:35:14.292Z,101647.09
2023-01-01T00:38:17.242Z,101636.09
2023-01-01T00:41:20.680Z,101646.97
2023-01-01T00:44:23.371Z,101630.94
2023-01-01T00:47:26.241Z,101635.69
2023-01-01T00:50:28.987Z,101644.47
2023-01-01T00:53:31.941Z,101648.91
2023-01-01T00:56:35.467Z,101651.41
2023-01-01T00:59:38.609Z,101654.56
2023-01-01T01:02:41.498Z,101661.38
2023-01-01T01:05:45.024Z,101650.50
2023-01-01T01:08:47.987Z,101661.09
2023-01-01T01:11:50.905Z,101658.66
2023-01-01T01:15:14.319Z,101669.53
2023-01-01T01:18:17.449Z,101673.78
2023-01-01T01:21:22.816Z,101674.09
2023-01-01T01:24:25.737Z,101673.59
2023-01-01T01:27:28.412Z,101673.06
2023-01-01T01:30:31.433Z,101662.03
2023-01-01T01:33:34.158Z,101655.47
2023-01-01T01:36:37.070Z,101658.38
2023-01-01T01:39:39.726Z,101653.56
2023-01-01T01:42:46.313Z,101655.25
2023-01-01T01:45:50.042Z,101645.50
2023-01-01T01:48:55.510Z,101640.25
2023-01-01T01:52:01.068Z,101644.69
2023-01-01T01:55:06.876Z,101646.59
2023-01-01T01:58:12.149Z,101641.75
2023-01-01T02:01:15.290Z,101619.13
2023-01-01T02:04:18.868Z,101639.53
2023-01-01T02:07:24.384Z,101635.97
2023-01-01T02:10:28.721Z,101639.28
2023-01-01T02:13:31.405Z,101635.81
2023-01-01T02:16:46.597Z,101642.22
2023-01-01T02:19:52.020Z,101639.72
2023-01-01T02:23:13.471Z,101646.78
2023-01-01T02:26:42.561Z,101644.84
2023-01-01T02:29:59.075Z,101642.94
2023-01-01T02:33:07.247Z,101649.50
2023-01-01T02:36:12.314Z,101652.28
2023-01-01T02:39:16.905Z,101654.56
2023-01-01T02:42:21.317Z,101654.44
2023-01-01T02:45:24.012Z,101660.06
2023-01-01T02:48:42.634Z,101650.66
2023-01-01T02:52:08.188Z,101661.72
2023-01-01T02:55:23.737Z,101661.81
2023-01-01T02:59:10.400Z,101665.44
2023-01-01T03:02:51.735Z,101671.94
2023-01-01T03:06:23.137Z,101669.00
2023-01-01T03:09:35.125Z,101657.66
2023-01-01T03:12:46.801Z,101669.91
2023-01-01T03:16:09.531Z,101662.94
2023-01-01T03:19:26.381Z,101671.81
2023-01-01T03:22:33.241Z,101651.28
2023-01-01T03:25:57.933Z,101666.38
2023-01-01T03:29:05.140Z,101655.97
2023-01-01T03:32:11.228Z,101666.00
2023-01-01T03:35:15.998Z,101666.91
2023-01-01T03:38:24.396Z,101663.91
2023-01-01T03:41:46.853Z,101658.50
2023-01-01T03:44:58.052Z,101666.91
2023-01-01T03:48:01.293Z,101666.41
2023-01-01T03:51:19.634Z,101672.81
2023-01-01T03:54:59.133Z,101676.34
2023-01-01T03:58:23.913Z,101676.66
2023-01-01T04:01:33.674Z,101683.16
2023-01-01T04:04:37.596Z,101683.66
2023-01-01T04:10:48.969Z,101670.19
2023-01-01T04:13:51.587Z,101661.56
2023-01-01T04:16:58.339Z,101652.47
2023-01-01T04:20:00.941Z,101675.50
2023-01-01T04:23:04.437Z,101675.91
2023-01-01T04:26:12.786Z,101670.19
2023-01-01T04:29:15.736Z,101674.37
2023-01-01T04:32:18.545Z,101681.13
2023-01-01T04:35:21.761Z,101681.69
2023-01-01T04:38:24.413Z,101693.00
2023-01-01T04:41:27.349Z,101697.38
2023-01-01T04:44:29.966Z,101691.37
2023-01-01T04:47:33.038Z,101695.72
2023-01-01T04:50:35.753Z,101706.03
2023-01-01T04:53:39.293Z,101710.44
2023-01-01T04:56:43.030Z,101715.84
2023-01-01T04:59:45.949Z,101717.81
2023-01-01T05:02:48.561Z,101717.09
2023-01-01T05:06:06.230Z,101723.31
2023-01-01T05:09:10.516Z,101716.91
2023-01-01T05:12:13.412Z,101723.44
2023-01-01T05:15:16.120Z,101720.38
2023-01-01T05:18:18.987Z,101717.59
2023-01-01T05:21:24.468Z,101722.94
2023-01-01T05:24:27.346Z,101726.66
2023-01-01T05:27:29.995Z,101724.16
2023-01-01T05:30:33.005Z,101724.41
2023-01-01T05:33:36.622Z,101722.84
2023-01-01T05:36:39.825Z,101721.28
2023-01-01T05:39:42.539Z,101721.13
2023-01-01T05:42:47.880Z,101717.91
2023-01-01T05:46:00.265Z,101722.22
2023-01-01T05:49:03.792Z,101725.47
2023-01-01T05:52:06.496Z,101719.75
2023-01-01T05:55:09.440Z,101721.81
2023-01-01T05:58:12.033Z,101725.69
2023-01-01T06:01:19.231Z,101723.38
2023-01-01T06:04:22.175Z,101734.66
2023-01-01T06:07:24.844Z,101736.78
2023-01-01T06:10:27.826Z,101739.69
2023-01-01T06:13:30.905Z,101744.09
2023-01-01T06:16:33.854Z,101743.91
2023-01-01T06:19:36.474Z,101741.47
2023-01-01T06:22:39.468Z,101737.44
2023-01-01T06:25:42.389Z,101722.13
2023-01-01T06:28:46.894Z,101743.34
2023-01-01T06:31:49.685Z,101732.38
2023-01-01T06:34:52.601Z,101733.44
2023-01-01T06:37:55.316Z,101735.31
2023-01-01T06:41:04.309Z,101740.81
2023-01-01T06:44:07.660Z,101745.91
2023-01-01T06:47:10.622Z,101745.03
2023-01-01T06:50:13.743Z,101737.12
2023-01-01T06:53:16.698Z,101730.34
2023-01-01T06:56:20.449Z,101740.25
2023-01-01T06:59:23.486Z,101749.97
2023-01-01T07:02:26.302Z,101747.06
2023-01-01T07:05:29.268Z,101741.25
2023-01-01T07:08:31.985Z,101740.59
2023-01-01T07:11:35.762Z,101748.41
2023-01-01T07:14:38.831Z,101739.84
2023-01-01T07:17:41.957Z,101746.22
2023-01-01T07:20:48.817Z,101741.44
2023-01-01T07:23:52.077Z,101734.47
2023-01-01T07:26:54.654Z,101751.97
2023-01-01T07:29:57.552Z,101748.81
2023-01-01T07:33:00.373Z,101745.75
2023-01-01T07:36:03.441Z,101749.47
2023-01-01T07:39:06.417Z,101758.78
2023-01-01T07:42:11.053Z,101768.66
2023-01-01T07:45:13.804Z,101771.19
2023-01-01T07:48:16.932Z,101763.75
2023-01-01T07:51:19.755Z,101760.84
2023-01-01T07:54:22.702Z,101766.72
2023-01-01T07:57:25.312Z,101753.62
2023-01-01T08:00:31.056Z,101764.63
2023-01-01T08:03:34.318Z,101764.09
2023-01-01T08:06:37.896Z,101763.16
2023-01-01T08:09:41.806Z,101772.81
2023-01-01T08:12:44.690Z,101771.03
2023-01-01T08:15:47.682Z,101775.06
2023-01-01T08:18:50.393Z,101777.19
2023-01-01T08:21:53.373Z,101772.87
2023-01-01T08:24:55.955Z,101785.69
2023-01-01T08:27:58.800Z,101779.72
2023-01-01T08:31:01.672Z,101783.78
2023-01-01T08:34:05.363Z,101791.69
2023-01-01T08:37:13.139Z,101789.84
2023-01-01T08:40:16.123Z,101783.47
2023-01-01T08:43:18.737Z,101792.16
2023-01-01T08:46:21.748Z,101783.19
2023-01-01T08:49:24.500Z,101793.19
2023-01-01T08:52:27.375Z,101791.94
2023-01-01T08:55:30.194Z,101788.09
2023-01-01T08:58:35.253Z,101792.28
2023-01-01T09:01:37.947Z,101779.78
2023-01-01T09:04:40.919Z,101780.09
2023-01-01T09:07:43.461Z,101775.09
2023-01-01T09:10:47.213Z,101777.34
2023-01-01T09:13:50.921Z,101768.16
2023-01-01T09:16:53.784Z,101773.72
2023-01-01T09:19:56.404Z,101767.06
2023-01-01T09:23:05.495Z,101766.84
2023-01-01T09:26:10.535Z,101765.31
2023-01-01T09:29:13.685Z,101761.50
2023-01-01T09:32:16.602Z,101760.25
2023-01-01T09:35:19.620Z,101759.84
2023-01-01T09:38:22.252Z,101752.19
2023-01-01T09:41:46.818Z,101741.09
2023-01-01T09:45:00.517Z,101749.84
2023-01-01T09:48:11.650Z,101747.81
2023-01-01T09:51:18.972Z,101741.75
2023-01-01T09:54:28.214Z,101736.78
2023-01-01T09:57:32.387Z,101732.56
2023-01-01T10:00:39.982Z,101726.41
2023-01-01T10:03:51.946Z,101724.19
2023-01-01T10:07:09.887Z,101733.84
2023-01-01T10:10:34.206Z,101727.22
2023-01-01T10:13:42.259Z,101729.50
2023-01-01T10:16:54.739Z,101734.81
2023-01-01T10:20:02.226Z,101730.66
2023-01-01T10:23:15.824Z,101726.78
2023-01-01T10:26:21.616Z,101730.94
2023-01-01T10:29:46.602Z,101729.81
2023-01-01T10:32:51.464Z,101725.13
2023-01-01T10:35:58.082Z,101720.31
2023-01-01T10:39:00.911Z,101706.69
2023-01-01T10:42:04.264Z,101708.28
2023-01-01T10:45:15.065Z,101705.88
2023-01-01T10:48:24.051Z,101693.75
2023-01-01T10:51:26.889Z,101693.28
2023-01-01T10:54:36.306Z,101688.03
2023-01-01T10:57:40.595Z,101690.00
2023-01-01T11:00:58.478Z,101699.53
2023-01-01T11:04:13.275Z,101689.56
2023-01-01T11:07:30.841Z,101696.94
2023-01-01T11:10:33.670Z,101687.94
2023-01-01T11:13:36.573Z,101686.12
2023-01-01T11:16:40.037Z,101680.09
2023-01-01T11:19:48.693Z,101675.62
2023-01-01T11:22:53.373Z,101674.41
2023-01-01T11:26:17.756Z,101653.84
2023-01-01T11:29:25.197Z,101660.44
2023-01-01T11:32:35.685Z,101660.03
2023-01-01T11:35:50.072Z,101648.66
2023-01-01T11:39:17.924Z,101648.84
2023-01-01T11:42:30.287Z,101652.84
2023-01-01T11:45:37.873Z,101651.06
2023-01-01T11:48:44.037Z,101639.53
2023-01-01T11:51:47.236Z,101639.63
2023-01-01T11:54:50.940Z,101640.78
2023-01-01T11:58:05.416Z,101646.47
2023-01-01T12:01:31.582Z,101641.75
2023-01-01T12:04:44.122Z,101641.38
2023-01-01T12:07:47.190Z,101646.00
2023-01-01T12:11:00.433Z,101639.97
2023-01-01T12:14:13.503Z,101648.06
2023-01-01T12:17:39.806Z,101645.38
2023-01-01T12:20:52.639Z,101635.19
2023-01-01T12:23:56.241Z,101641.38
2023-01-01T12:27:13.015Z,101629.78
2023-01-01T12:30:42.339Z,101635.28
2023-01-01T12:34:12.981Z,101631.19
2023-01-01T12:37:46.332Z,101628.81
2023-01-01T12:41:34.221Z,101610.41
2023-01-01T12:44:52.627Z,101624.09
2023-01-01T12:48:07.386Z,101622.41
2023-01-01T12:51:19.138Z,101620.19
2023-01-01T12:54:43.277Z,101623.19
2023-01-01T12:57:56.088Z,101607.41
2023-01-01T13:01:07.293Z,101597.16
2023-01-01T13:04:17.207Z,101595.09
2023-01-01T13:07:30.318Z,101601.38
2023-01-01T13:10:40.567Z,101608.81
2023-01-01T13:13:43.549Z,101606.66
2023-01-01T13:16:54.053Z,101603.19
2023-01-01T13:20:11.619Z,101605.66
2023-01-01T13:23:36.411Z,101618.75
2023-01-01T13:26:40.553Z,101608.66
2023-01-01T13:29:45.310Z,101606.25
2023-01-01T13:33:12.782Z,101608.38
2023-01-01T13:36:18.602Z,101612.16
2023-01-01T13:39:55.557Z,101616.78
2023-01-01T13:43:04.346Z,101610.75
2023-01-01T13:46:13.488Z,101608.50
2023-01-01T13:49:21.236Z,101614.00
2023-01-01T13:52:32.908Z,101613.69
2023-01-01T13:55:45.785Z,101614.50
2023-01-01T13:58:51.241Z,101615.94
2023-01-01T14:02:20.127Z,101616.31
2023-01-01T14:05:28.438Z,101608.66
2023-01-01T14:08:34.516Z,101613.13
2023-01-01T14:11:37.649Z,101605.72
2023-01-01T14:14:40.335Z,101599.41
2023-01-01T14:17:44.588Z,101602.72
2023-01-01T14:20:53.823Z,101595.31
2023-01-01T14:24:01.147Z,101605.25
2023-01-01T14:27:06.219Z,101604.69
2023-01-01T14:30:16.654Z,101602.63
2023-01-01T14:33:25.168Z,101605.12
2023-01-01T14:36:31.051Z,101604.09
2023-01-01T14:39:36.320Z,101608.31
2023-01-01T14:42:40.538Z,101618.12
2023-01-01T14:45:44.210Z,101620.66
2023-01-01T14:49:00.969Z,101613.78
2023-01-01T14:52:09.478Z,101612.63
2023-01-01T14:55:19.217Z,101616.03
2023-01-01T14:58:29.055Z,101606.03
2023-01-01T15:01:32.736Z,101618.94
2023-01-01T15:04:36.177Z,101606.28
2023-01-01T15:07:39.106Z,101618.47
2023-01-01T15:10:43.661Z,101629.09
2023-01-01T15:14:02.679Z,101638.78
2023-01-01T15:17:06.749Z,101626.59
2023-01-01T15:20:22.240Z,101638.72
2023-01-01T15:23:24.856Z,101642.16
2023-01-01T15:26:33.486Z,101641.13
2023-01-01T15:29:38.681Z,101651.81
2023-01-01T15:32:41.743Z,101642.22
2023-01-01T15:35:49.862Z,101639.87
2023-01-01T15:38:53.049Z,101633.97
2023-01-01T15:41:55.682Z,101630.72
2023-01-01T15:45:34.041Z,101633.81
2023-01-01T15:48:46.722Z,101636.25
2023-01-01T15:51:49.831Z,101628.41
2023-01-01T15:54:53.064Z,101629.22
2023-01-01T15:57:56.495Z,101639.84
2023-01-01T16:01:03.339Z,101643.87
2023-01-01T16:04:10.400Z,101634.69
2023-01-01T16:07:20.959Z,101642.12
2023-01-01T16:10:24.101Z,101635.38
2023-01-01T16:13:27.287Z,101641.44
2023-01-01T16:16:31.578Z,101641.28
2023-01-01T16:19:34.553Z,101643.53
2023-01-01T16:22:37.648Z,101641.09
2023-01-01T16:25:40.294Z,101642.38
2023-01-01T16:28:43.345Z,101655.41
2023-01-01T16:31:48.146Z,101647.37
2023-01-01T16:34:50.943Z,101648.00
2023-01-01T16:37:53.547Z,101662.12
2023-01-01T16:40:56.451Z,101657.13
2023-01-01T16:43:59.027Z,101659.22
2023-01-01T16:47:02.084Z,101659.88
2023-01-01T16:50:05.107Z,101656.81
2023-01-01T16:53:07.989Z,101662.06
2023-01-01T16:56:12.438Z,101667.19
2023-01-01T16:59:15.426Z,101670.03
2023-01-01T17:02:18.489Z,101669.50
2023-01-01T17:05:21.464Z,101677.81
2023-01-01T17:08:24.149Z,101683.56
2023-01-01T17:11:27.635Z,101686.38
2023-01-01T17:14:30.696Z,101684.63
2023-01-01T17:17:33.607Z,101670.84
2023-01-01T17:20:37.332Z,101675.62
2023-01-01T17:23:43.917Z,101678.97
2023-01-01T17:26:50.743Z,101681.66
2023-01-01T17:29:54.092Z,101685.00
2023-01-01T17:32:57.321Z,101684.78
2023-01-01T17:36:00.434Z,101686.84
2023-01-01T17:39:03.095Z,101687.47
2023-01-01T17:42:06.024Z,101682.22
2023-01-01T17:45:10.993Z,101663.75
2023-01-01T17:48:13.876Z,101682.47
2023-01-01T17:51:18.127Z,101679.00
2023-01-01T17:54:21.257Z,101683.94
2023-01-01T17:57:25.299Z,101669.62
2023-01-01T18:00:28.318Z,101678.47
2023-01-01T18:03:31.476Z,101679.75
2023-01-01T18:06:41.083Z,101684.69
2023-01-01T18:09:45.454Z,101686.66
2023-01-01T18:12:48.422Z,101681.47
2023-01-01T18:15:51.531Z,101678.88
2023-01-01T18:18:54.484Z,101664.16
2023-01-01T18:21:57.517Z,101676.91
2023-01-01T18:25:00.119Z,101673.84
2023-01-01T18:28:03.676Z,101677.03
2023-01-01T18:31:11.876Z,101669.91
2023-01-01T18:34:14.964Z,101673.31
2023-01-01T18:37:18.445Z,101667.50
2023-01-01T18:40:22.303Z,101682.09
2023-01-01T18:43:25.344Z,101666.25
2023-01-01T18:46:33.032Z,101676.16
2023-01-01T18:49:37.598Z,101676.28
2023-01-01T18:52:40.645Z,101684.00
2023-01-01T18:55:43.240Z,101683.91
2023-01-01T18:58:47.668Z,101685.88
2023-01-01T19:01:50.689Z,101678.84
2023-01-01T19:05:24.762Z,101674.66
2023-01-01T19:08:29.756Z,101677.56
2023-01-01T19:11:37.129Z,101673.97
2023-01-01T19:14:40.852Z,101679.53
2023-01-01T19:17:45.018Z,101681.53
2023-01-01T19:20:58.505Z,101681.44
2023-01-01T19:24:03.000Z,101686.84
2023-01-01T19:27:15.452Z,101681.91
2023-01-01T19:30:23.369Z,101676.47
2023-01-01T19:33:26.287Z,101692.41
2023-01-01T19:36:29.372Z,101696.81
2023-01-01T19:39:32.599Z,101705.09
2023-01-01T19:42:35.414Z,101693.38
2023-01-01T19:45:38.141Z,101694.69
2023-01-01T19:48:41.254Z,101687.19
2023-01-01T19:51:44.096Z,101694.31
2023-01-01T19:54:48.264Z,101697.25
2023-01-01T19:57:50.838Z,101708.72
2023-01-01T20:00:54.515Z,101704.97
2023-01-01T20:03:58.903Z,101701.44
2023-01-01T20:07:02.282Z,101706.50
2023-01-01T20:10:05.950Z,101705.69
2023-01-01T20:13:09.971Z,101716.16
2023-01-01T20:16:13.270Z,101712.84
2023-01-01T20:19:17.028Z,101713.12
2023-01-01T20:22:22.048Z,101705.47
2023-01-01T20:25:24.946Z,101699.97
2023-01-01T20:28:46.892Z,101711.22
2023-01-01T20:31:53.091Z,101704.47
2023-01-01T20:34:56.483Z,101706.81
2023-01-01T20:37:59.291Z,101703.88
2023-01-01T20:41:23.021Z,101700.03
2023-01-01T20:44:26.361Z,101697.13
2023-01-01T20:47:29.549Z,101708.09
2023-01-01T20:50:32.508Z,101708.69
2023-01-01T20:53:36.054Z,101700.84
2023-01-01T20:56:38.866Z,101693.59
2023-01-01T20:59:42.092Z,101697.72
2023-01-01T21:02:45.037Z,101694.59
2023-01-01T21:05:48.229Z,101692.50
2023-01-01T21:08:50.956Z,101692.59
2023-01-01T21:11:55.757Z,101696.91
2023-01-01T21:14:58.564Z,101692.38
2023-01-01T21:18:04.205Z,101689.75
2023-01-01T21:21:32.237Z,101694.37
2023-01-01T21:24:39.598Z,101675.84
2023-01-01T21:27:42.268Z,101687.03
2023-01-01T21:30:51.151Z,101675.72
2023-01-01T21:33:53.772Z,101675.53
2023-01-01T21:37:02.128Z,101684.31
2023-01-01T21:40:35.863Z,101681.41
2023-01-01T21:43:42.107Z,101677.97
2023-01-01T21:46:54.232Z,101671.03
2023-01-01T21:49:59.866Z,101676.47
2023-01-01T21:53:09.846Z,101675.78
2023-01-01T21:56:47.712Z,101669.22
2023-01-01T21:59:51.574Z,101664.41
2023-01-01T22:02:54.722Z,101658.66
2023-01-01T22:05:59.653Z,101657.16
2023-01-01T22:09:11.186Z,101662.59
2023-01-01T22:12:14.030Z,101665.62
2023-01-01T22:15:25.896Z,101660.37
2023-01-01T22:18:31.162Z,101663.38
2023-01-01T22:21:33.735Z,101661.00
2023-01-01T22:24:36.767Z,101659.56
2023-01-01T22:27:40.576Z,101658.62
2023-01-01T22:30:44.064Z,101660.66
2023-01-01T22:33:48.685Z,101645.88
2023-01-01T22:36:51.620Z,101656.94
2023-01-01T22:39:54.182Z,101651.09
2023-01-01T22:43:15.413Z,101653.19
2023-01-01T22:46:33.825Z,101650.09
2023-01-01T22:49:39.274Z,101654.47
2023-01-01T22:52:41.969Z,101647.13
2023-01-01T22:55:46.056Z,101635.41
2023-01-01T22:58:54.837Z,101646.78
2023-01-01T23:02:00.551Z,101657.34
2023-01-01T23:05:03.559Z,101652.28
2023-01-01T23:08:06.694Z,101647.06
2023-01-01T23:11:09.514Z,101642.47
2023-01-01T23:14:35.505Z,101640.53
2023-01-01T23:17:41.306Z,101644.16
2023-01-01T23:20:44.254Z,101640.47
2023-01-01T23:23:50.429Z,101639.97
2023-01-01T23:26:53.787Z,101643.37
2023-01-01T23:29:56.741Z,101640.00
2023-01-01T23:32:59.824Z,101656.87
2023-01-01T23:36:02.819Z,101642.00
2023-01-01T23:39:06.923Z,101641.25
2023-01-01T23:42:10.866Z,101636.13
2023-01-01T23:45:13.778Z,101638.09
2023-01-01T23:48:17.145Z,101632.97
2023-01-01T23:51:20.430Z,101638.41
2023-01-01T23:54:23.175Z,101636.13
2023-01-01T23:57:26.507Z,101629.69
